Elloree, South Carolina
Current Conditions -  °F | °C
As of 3:53 AM on Thursday 23 Oct 2014 (Local Time) from KOGB Reporting Station
Clear Clear  
Wind Chill: 45°   Ceiling: Unl
Heat Index: 47°   Visibility: 10mi
Dew Point: 42°   Wind: 5mph
Humidity: 83%   Direction: 340°NNW
Pressure: 30.07"   Gusts: NA
Location:  33.53°N, 80.57°W
Report Text: KOGB 230753Z AUTO 34004KT 10SM CLR 08/06 A3007 RMK AO2 SLP180 T00830056
Loading
Personal Weather Stations






























Interactive Weather Map
Tropical Storm Tracking
New forecast layout! Learn more

10-Day Weather Forecast

Advertisements
Track Severe Weather on mobile